Terminal Aerodrome Forecast
Issued by NWS

Home | Current Version | Previous Version | Text Only | Print | Product List | Glossary On
Versions: 1 2 3 4 5 6 7 8 9 10 11 12 13 14 15 16 17 18 19 20 21 22 23 24 25 26 27 28 29 30 31
000
FTUS43 KLOT 290707 AAA
TAFMDW
TAF AMD
KMDW 290707Z 2907/3006 01012G18KT P6SM VCSH BKN020
     FM291400 03018G28KT P6SM VCSH BKN020
      TEMPO 2921/3001 6SM SHRA BKN012
     FM300100 04012KT P6SM BKN009=

USA.gov is the U.S. government's official web portal to all federal, state and local government web resources and services.